sensor_id;sensor_type;location;lat;lon;timestamp;temperature;humidity
19552;DHT22;9921;47.186;9.778;2024-02-14T00:00:14;4.60;99.90
19552;DHT22;9921;47.186;9.778;2024-02-14T00:02:41;4.50;99.90
19552;DHT22;9921;47.186;9.778;2024-02-14T00:05:12;4.50;99.90
19552;DHT22;9921;47.186;9.778;2024-02-14T00:07:39;4.50;99.90
19552;DHT22;9921;47.186;9.778;2024-02-14T00:10:07;4.50;99.90
19552;DHT22;9921;47.186;9.778;2024-02-14T00:12:35;4.50;99.90
19552;DHT22;9921;47.186;9.778;2024-02-14T00:15:03;4.50;99.90
19552;DHT22;9921;47.186;9.778;2024-02-14T00:17:31;4.50;99.90
19552;DHT22;9921;47.186;9.778;2024-02-14T00:20:01;4.50;99.90
19552;DHT22;9921;47.186;9.778;2024-02-14T00:22:29;4.40;99.90
19552;DHT22;9921;47.186;9.778;2024-02-14T00:24:59;4.40;99.90
19552;DHT22;9921;47.186;9.778;2024-02-14T00:27:25;4.40;99.90
19552;DHT22;9921;47.186;9.778;2024-02-14T00:29:54;4.30;99.90
19552;DHT22;9921;47.186;9.778;2024-02-14T00:32:21;4.30;99.90
19552;DHT22;9921;47.186;9.778;2024-02-14T00:34:47;4.30;99.90
19552;DHT22;9921;47.186;9.778;2024-02-14T00:37:15;4.20;99.90
19552;DHT22;9921;47.186;9.778;2024-02-14T00:39:42;4.20;99.90
19552;DHT22;9921;47.186;9.778;2024-02-14T00:42:09;4.20;99.90
19552;DHT22;9921;47.186;9.778;2024-02-14T00:44:35;4.10;99.90
19552;DHT22;9921;47.186;9.778;2024-02-14T00:47:04;4.20;99.90
19552;DHT22;9921;47.186;9.778;2024-02-14T00:49:34;4.20;99.90
19552;DHT22;9921;47.186;9.778;2024-02-14T00:52:04;4.30;99.90
19552;DHT22;9921;47.186;9.778;2024-02-14T00:54:32;4.20;99.90
19552;DHT22;9921;47.186;9.778;2024-02-14T00:57:00;4.20;99.90
19552;DHT22;9921;47.186;9.778;2024-02-14T00:59:27;4.20;99.90
19552;DHT22;9921;47.186;9.778;2024-02-14T01:01:54;4.20;99.90
19552;DHT22;9921;47.186;9.778;2024-02-14T01:04:24;4.10;99.90
19552;DHT22;9921;47.186;9.778;2024-02-14T01:06:50;4.00;99.90
19552;DHT22;9921;47.186;9.778;2024-02-14T01:09:18;4.10;99.90
19552;DHT22;9921;47.186;9.778;2024-02-14T01:11:45;4.00;99.90
19552;DHT22;9921;47.186;9.778;2024-02-14T01:14:14;4.00;99.90
19552;DHT22;9921;47.186;9.778;2024-02-14T01:16:44;4.00;99.90
19552;DHT22;9921;47.186;9.778;2024-02-14T01:19:16;4.00;99.90
19552;DHT22;9921;47.186;9.778;2024-02-14T01:21:45;4.00;99.90
19552;DHT22;9921;47.186;9.778;2024-02-14T01:24:13;4.00;99.90
19552;DHT22;9921;47.186;9.778;2024-02-14T01:26:40;3.90;99.90
19552;DHT22;9921;47.186;9.778;2024-02-14T01:29:07;3.90;99.90
19552;DHT22;9921;47.186;9.778;2024-02-14T01:31:35;3.90;99.90
19552;DHT22;9921;47.186;9.778;2024-02-14T01:34:01;3.90;99.90
19552;DHT22;9921;47.186;9.778;2024-02-14T01:36:28;3.80;99.90
19552;DHT22;9921;47.186;9.778;2024-02-14T01:38:59;3.80;99.90
19552;DHT22;9921;47.186;9.778;2024-02-14T01:41:26;3.80;99.90
19552;DHT22;9921;47.186;9.778;2024-02-14T01:43:55;3.80;99.90
19552;DHT22;9921;47.186;9.778;2024-02-14T01:46:24;3.90;99.90
19552;DHT22;9921;47.186;9.778;2024-02-14T01:48:51;3.80;99.90
19552;DHT22;9921;47.186;9.778;2024-02-14T01:51:19;3.80;99.90
19552;DHT22;9921;47.186;9.778;2024-02-14T01:53:50;3.80;99.90
19552;DHT22;9921;47.186;9.778;2024-02-14T01:56:19;3.70;99.90
19552;DHT22;9921;47.186;9.778;2024-02-14T01:58:47;3.70;99.90
19552;DHT22;9921;47.186;9.778;2024-02-14T02:01:15;3.70;99.90
19552;DHT22;9921;47.186;9.778;2024-02-14T02:03:43;3.70;99.90
19552;DHT22;9921;47.186;9.778;2024-02-14T02:06:10;3.70;99.90
19552;DHT22;9921;47.186;9.778;2024-02-14T02:08:37;3.70;99.90
19552;DHT22;9921;47.186;9.778;2024-02-14T02:11:04;3.70;99.90
19552;DHT22;9921;47.186;9.778;2024-02-14T02:13:32;3.60;99.90
19552;DHT22;9921;47.186;9.778;2024-02-14T02:16:02;3.60;99.90
19552;DHT22;9921;47.186;9.778;2024-02-14T02:18:30;3.50;99.90
19552;DHT22;9921;47.186;9.778;2024-02-14T02:20:57;3.50;99.90
19552;DHT22;9921;47.186;9.778;2024-02-14T02:23:25;3.50;99.90
19552;DHT22;9921;47.186;9.778;2024-02-14T02:25:52;3.60;99.90
19552;DHT22;9921;47.186;9.778;2024-02-14T02:28:19;3.50;99.90
19552;DHT22;9921;47.186;9.778;2024-02-14T02:30:46;3.50;99.90
19552;DHT22;9921;47.186;9.778;2024-02-14T02:33:13;3.40;99.90
19552;DHT22;9921;47.186;9.778;2024-02-14T02:35:42;3.50;99.90
19552;DHT22;9921;47.186;9.778;2024-02-14T02:38:10;3.60;99.90
19552;DHT22;9921;47.186;9.778;2024-02-14T02:40:38;3.50;99.90
19552;DHT22;9921;47.186;9.778;2024-02-14T02:43:05;3.40;99.90
19552;DHT22;9921;47.186;9.778;2024-02-14T02:45:34;3.40;99.90
19552;DHT22;9921;47.186;9.778;2024-02-14T02:48:03;3.50;99.90
19552;DHT22;9921;47.186;9.778;2024-02-14T02:50:30;3.50;99.90
19552;DHT22;9921;47.186;9.778;2024-02-14T02:52:57;3.50;99.90
19552;DHT22;9921;47.186;9.778;2024-02-14T02:55:25;3.50;99.90
19552;DHT22;9921;47.186;9.778;2024-02-14T02:57:54;3.50;99.90
19552;DHT22;9921;47.186;9.778;2024-02-14T03:00:21;3.50;99.90
19552;DHT22;9921;47.186;9.778;2024-02-14T03:02:48;3.40;99.90
19552;DHT22;9921;47.186;9.778;2024-02-14T03:05:15;3.40;99.90
19552;DHT22;9921;47.186;9.778;2024-02-14T03:07:44;3.40;99.90
19552;DHT22;9921;47.186;9.778;2024-02-14T03:10:13;3.20;99.90
19552;DHT22;9921;47.186;9.778;2024-02-14T03:12:45;3.10;99.90
19552;DHT22;9921;47.186;9.778;2024-02-14T03:15:16;3.10;99.90
19552;DHT22;9921;47.186;9.778;2024-02-14T03:17:45;3.10;99.90
19552;DHT22;9921;47.186;9.778;2024-02-14T03:20:12;3.00;99.90
19552;DHT22;9921;47.186;9.778;2024-02-14T03:22:40;3.00;99.90
19552;DHT22;9921;47.186;9.778;2024-02-14T03:25:12;2.90;99.90
19552;DHT22;9921;47.186;9.778;2024-02-14T03:27:40;2.90;99.90
19552;DHT22;9921;47.186;9.778;2024-02-14T03:30:10;2.90;99.90
19552;DHT22;9921;47.186;9.778;2024-02-14T03:32:42;2.80;99.90
19552;DHT22;9921;47.186;9.778;2024-02-14T03:35:12;2.70;99.90
19552;DHT22;9921;47.186;9.778;2024-02-14T03:37:40;2.60;99.90
19552;DHT22;9921;47.186;9.778;2024-02-14T03:40:08;2.60;99.90
19552;DHT22;9921;47.186;9.778;2024-02-14T03:42:36;2.70;99.90
19552;DHT22;9921;47.186;9.778;2024-02-14T03:45:06;2.70;99.90
19552;DHT22;9921;47.186;9.778;2024-02-14T03:47:33;2.70;99.90
19552;DHT22;9921;47.186;9.778;2024-02-14T03:50:01;2.70;99.90
19552;DHT22;9921;47.186;9.778;2024-02-14T03:52:30;2.60;99.90
19552;DHT22;9921;47.186;9.778;2024-02-14T03:54:58;2.70;99.90
19552;DHT22;9921;47.186;9.778;2024-02-14T03:57:26;2.70;99.90
19552;DHT22;9921;47.186;9.778;2024-02-14T03:59:54;2.70;99.90
19552;DHT22;9921;47.186;9.778;2024-02-14T04:02:21;2.70;99.90
19552;DHT22;9921;47.186;9.778;2024-02-14T04:04:49;2.80;99.90
19552;DHT22;9921;47.186;9.778;2024-02-14T04:07:17;2.80;99.90
19552;DHT22;9921;47.186;9.778;2024-02-14T04:09:44;2.80;99.90
19552;DHT22;9921;47.186;9.778;2024-02-14T04:12:13;2.80;99.90
19552;DHT22;9921;47.186;9.778;2024-02-14T04:14:39;2.90;99.90
19552;DHT22;9921;47.186;9.778;2024-02-14T04:17:06;3.00;99.90
19552;DHT22;9921;47.186;9.778;2024-02-14T04:19:34;3.00;99.90
19552;DHT22;9921;47.186;9.778;2024-02-14T04:22:00;3.00;99.90
19552;DHT22;9921;47.186;9.778;2024-02-14T04:24:33;3.00;99.90
19552;DHT22;9921;47.186;9.778;2024-02-14T04:27:02;3.00;99.90
19552;DHT22;9921;47.186;9.778;2024-02-14T04:29:29;2.90;99.90
19552;DHT22;9921;47.186;9.778;2024-02-14T04:31:58;2.90;99.90
19552;DHT22;9921;47.186;9.778;2024-02-14T04:34:25;2.90;99.90
19552;DHT22;9921;47.186;9.778;2024-02-14T04:36:52;2.90;99.90
19552;DHT22;9921;47.186;9.778;2024-02-14T04:39:19;2.80;99.90
19552;DHT22;9921;47.186;9.778;2024-02-14T04:41:47;2.80;99.90
19552;DHT22;9921;47.186;9.778;2024-02-14T04:44:15;2.70;99.90
19552;DHT22;9921;47.186;9.778;2024-02-14T04:46:42;2.70;99.90
19552;DHT22;9921;47.186;9.778;2024-02-14T04:49:10;2.70;99.90
19552;DHT22;9921;47.186;9.778;2024-02-14T04:51:37;2.80;99.90
19552;DHT22;9921;47.186;9.778;2024-02-14T04:54:04;2.80;99.90
19552;DHT22;9921;47.186;9.778;2024-02-14T04:56:31;2.80;99.90
19552;DHT22;9921;47.186;9.778;2024-02-14T04:58:59;2.80;99.90
19552;DHT22;9921;47.186;9.778;2024-02-14T05:01:27;2.70;99.90
19552;DHT22;9921;47.186;9.778;2024-02-14T05:03:54;2.80;99.90
19552;DHT22;9921;47.186;9.778;2024-02-14T05:06:21;2.80;99.90
19552;DHT22;9921;47.186;9.778;2024-02-14T05:08:50;2.80;99.90
19552;DHT22;9921;47.186;9.778;2024-02-14T05:11:18;2.80;99.90
19552;DHT22;9921;47.186;9.778;2024-02-14T05:13:47;2.90;99.90
19552;DHT22;9921;47.186;9.778;2024-02-14T05:16:20;3.00;99.90
19552;DHT22;9921;47.186;9.778;2024-02-14T05:18:46;3.00;99.90
19552;DHT22;9921;47.186;9.778;2024-02-14T05:21:14;3.10;99.90
19552;DHT22;9921;47.186;9.778;2024-02-14T05:23:44;3.20;99.90
19552;DHT22;9921;47.186;9.778;2024-02-14T05:26:10;3.30;99.90
19552;DHT22;9921;47.186;9.778;2024-02-14T05:28:37;3.30;99.90
19552;DHT22;9921;47.186;9.778;2024-02-14T05:31:05;3.40;99.90
19552;DHT22;9921;47.186;9.778;2024-02-14T05:33:37;3.40;99.90
19552;DHT22;9921;47.186;9.778;2024-02-14T05:36:05;3.50;99.90
19552;DHT22;9921;47.186;9.778;2024-02-14T05:38:34;3.50;99.90
19552;DHT22;9921;47.186;9.778;2024-02-14T05:41:01;3.50;99.90
19552;DHT22;9921;47.186;9.778;2024-02-14T05:43:30;3.60;99.90
19552;DHT22;9921;47.186;9.778;2024-02-14T05:45:58;3.70;99.90
19552;DHT22;9921;47.186;9.778;2024-02-14T05:48:25;3.70;99.90
19552;DHT22;9921;47.186;9.778;2024-02-14T05:50:54;3.80;99.90
19552;DHT22;9921;47.186;9.778;2024-02-14T05:53:20;3.80;99.90
19552;DHT22;9921;47.186;9.778;2024-02-14T05:55:49;3.80;99.90
19552;DHT22;9921;47.186;9.778;2024-02-14T05:58:16;3.90;99.90
19552;DHT22;9921;47.186;9.778;2024-02-14T06:00:43;3.80;99.90
19552;DHT22;9921;47.186;9.778;2024-02-14T06:03:09;3.80;99.90
19552;DHT22;9921;47.186;9.778;2024-02-14T06:05:36;3.80;99.90
19552;DHT22;9921;47.186;9.778;2024-02-14T06:08:05;3.70;99.90
19552;DHT22;9921;47.186;9.778;2024-02-14T06:10:32;3.80;99.90
19552;DHT22;9921;47.186;9.778;2024-02-14T06:12:59;3.80;99.90
19552;DHT22;9921;47.186;9.778;2024-02-14T06:15:26;3.80;99.90
19552;DHT22;9921;47.186;9.778;2024-02-14T06:17:53;3.90;99.90
19552;DHT22;9921;47.186;9.778;2024-02-14T06:20:20;3.80;99.90
19552;DHT22;9921;47.186;9.778;2024-02-14T06:22:48;3.80;99.90
19552;DHT22;9921;47.186;9.778;2024-02-14T06:25:16;3.80;99.90
19552;DHT22;9921;47.186;9.778;2024-02-14T06:27:45;3.80;99.90
19552;DHT22;9921;47.186;9.778;2024-02-14T06:30:12;3.80;99.90
19552;DHT22;9921;47.186;9.778;2024-02-14T06:32:39;3.80;99.90
19552;DHT22;9921;47.186;9.778;2024-02-14T06:35:06;3.80;99.90
19552;DHT22;9921;47.186;9.778;2024-02-14T06:37:33;3.90;99.90
19552;DHT22;9921;47.186;9.778;2024-02-14T06:40:00;4.00;99.90
19552;DHT22;9921;47.186;9.778;2024-02-14T06:42:30;3.90;99.90
19552;DHT22;9921;47.186;9.778;2024-02-14T06:44:57;4.00;99.90
19552;DHT22;9921;47.186;9.778;2024-02-14T06:47:23;3.90;99.90
19552;DHT22;9921;47.186;9.778;2024-02-14T06:49:57;4.00;99.90
19552;DHT22;9921;47.186;9.778;2024-02-14T06:52:24;4.10;99.90
19552;DHT22;9921;47.186;9.778;2024-02-14T06:54:51;4.10;99.90
19552;DHT22;9921;47.186;9.778;2024-02-14T06:57:18;4.10;99.90
19552;DHT22;9921;47.186;9.778;2024-02-14T06:59:46;4.10;99.90
19552;DHT22;9921;47.186;9.778;2024-02-14T07:02:13;4.20;99.90
19552;DHT22;9921;47.186;9.778;2024-02-14T07:04:40;4.20;99.90
19552;DHT22;9921;47.186;9.778;2024-02-14T07:07:07;4.20;99.90
19552;DHT22;9921;47.186;9.778;2024-02-14T07:09:34;4.20;99.90
19552;DHT22;9921;47.186;9.778;2024-02-14T07:12:03;4.30;99.90
19552;DHT22;9921;47.186;9.778;2024-02-14T07:14:29;4.20;99.90
19552;DHT22;9921;47.186;9.778;2024-02-14T07:16:58;4.20;99.90
19552;DHT22;9921;47.186;9.778;2024-02-14T07:19:25;4.30;99.90
19552;DHT22;9921;47.186;9.778;2024-02-14T07:21:51;4.40;99.90
19552;DHT22;9921;47.186;9.778;2024-02-14T07:24:18;4.50;99.90
19552;DHT22;9921;47.186;9.778;2024-02-14T07:26:47;4.50;99.90
19552;DHT22;9921;47.186;9.778;2024-02-14T07:29:14;4.50;99.90
19552;DHT22;9921;47.186;9.778;2024-02-14T07:31:41;4.60;99.90
19552;DHT22;9921;47.186;9.778;2024-02-14T07:34:09;4.60;99.90
19552;DHT22;9921;47.186;9.778;2024-02-14T07:36:37;4.70;99.90
19552;DHT22;9921;47.186;9.778;2024-02-14T07:39:04;4.70;99.90
19552;DHT22;9921;47.186;9.778;2024-02-14T07:41:30;4.90;99.90
19552;DHT22;9921;47.186;9.778;2024-02-14T07:43:57;4.90;99.90
19552;DHT22;9921;47.186;9.778;2024-02-14T07:46:24;5.00;99.90
19552;DHT22;9921;47.186;9.778;2024-02-14T07:48:52;5.00;99.90
19552;DHT22;9921;47.186;9.778;2024-02-14T07:51:20;5.00;99.90
19552;DHT22;9921;47.186;9.778;2024-02-14T07:54:01;5.00;99.90
19552;DHT22;9921;47.186;9.778;2024-02-14T07:56:28;5.10;99.90
19552;DHT22;9921;47.186;9.778;2024-02-14T08:02:17;5.00;99.90
19552;DHT22;9921;47.186;9.778;2024-02-14T08:04:46;5.00;99.90
19552;DHT22;9921;47.186;9.778;2024-02-14T08:07:14;5.00;99.90
19552;DHT22;9921;47.186;9.778;2024-02-14T08:09:41;5.20;99.90
19552;DHT22;9921;47.186;9.778;2024-02-14T08:12:08;5.20;99.90
19552;DHT22;9921;47.186;9.778;2024-02-14T08:14:36;5.40;99.90
19552;DHT22;9921;47.186;9.778;2024-02-14T08:17:03;5.50;99.90
19552;DHT22;9921;47.186;9.778;2024-02-14T08:19:30;5.50;99.90
19552;DHT22;9921;47.186;9.778;2024-02-14T08:22:01;5.60;99.90
19552;DHT22;9921;47.186;9.778;2024-02-14T08:24:29;5.80;99.90
19552;DHT22;9921;47.186;9.778;2024-02-14T08:26:56;5.80;99.90
19552;DHT22;9921;47.186;9.778;2024-02-14T08:29:23;6.00;99.90
19552;DHT22;9921;47.186;9.778;2024-02-14T08:31:52;6.40;99.90
19552;DHT22;9921;47.186;9.778;2024-02-14T08:34:19;6.90;99.90
19552;DHT22;9921;47.186;9.778;2024-02-14T08:36:46;7.30;99.90
19552;DHT22;9921;47.186;9.778;2024-02-14T08:39:13;7.80;99.90
19552;DHT22;9921;47.186;9.778;2024-02-14T08:41:43;8.60;99.90
19552;DHT22;9921;47.186;9.778;2024-02-14T08:44:12;9.40;99.90
19552;DHT22;9921;47.186;9.778;2024-02-14T08:46:39;10.00;99.90
19552;DHT22;9921;47.186;9.778;2024-02-14T08:49:08;10.50;99.90
19552;DHT22;9921;47.186;9.778;2024-02-14T08:51:38;11.00;99.90
19552;DHT22;9921;47.186;9.778;2024-02-14T08:54:05;11.20;99.90
19552;DHT22;9921;47.186;9.778;2024-02-14T08:56:32;11.70;99.90
19552;DHT22;9921;47.186;9.778;2024-02-14T08:59:00;12.00;99.90
19552;DHT22;9921;47.186;9.778;2024-02-14T09:01:28;12.30;99.90
19552;DHT22;9921;47.186;9.778;2024-02-14T09:03:55;12.50;99.90
19552;DHT22;9921;47.186;9.778;2024-02-14T09:06:22;12.20;99.90
19552;DHT22;9921;47.186;9.778;2024-02-14T09:08:49;12.00;99.90
19552;DHT22;9921;47.186;9.778;2024-02-14T09:11:17;11.80;99.90
19552;DHT22;9921;47.186;9.778;2024-02-14T09:13:44;11.80;99.90
19552;DHT22;9921;47.186;9.778;2024-02-14T09:16:15;11.80;99.90
19552;DHT22;9921;47.186;9.778;2024-02-14T09:18:45;11.70;99.90
19552;DHT22;9921;47.186;9.778;2024-02-14T09:21:13;11.60;99.90
19552;DHT22;9921;47.186;9.778;2024-02-14T09:23:41;11.60;99.90
19552;DHT22;9921;47.186;9.778;2024-02-14T09:26:17;11.70;99.90
19552;DHT22;9921;47.186;9.778;2024-02-14T09:28:44;11.90;99.90
19552;DHT22;9921;47.186;9.778;2024-02-14T09:31:11;12.10;99.90
19552;DHT22;9921;47.186;9.778;2024-02-14T09:33:39;12.20;99.90
19552;DHT22;9921;47.186;9.778;2024-02-14T09:36:07;12.30;99.90
19552;DHT22;9921;47.186;9.778;2024-02-14T09:38:34;12.30;99.90
19552;DHT22;9921;47.186;9.778;2024-02-14T09:41:08;12.20;99.90
19552;DHT22;9921;47.186;9.778;2024-02-14T09:43:38;12.20;99.90
19552;DHT22;9921;47.186;9.778;2024-02-14T09:46:07;12.20;99.90
19552;DHT22;9921;47.186;9.778;2024-02-14T09:48:35;12.30;99.90
19552;DHT22;9921;47.186;9.778;2024-02-14T09:51:10;12.30;99.90
19552;DHT22;9921;47.186;9.778;2024-02-14T09:53:38;12.40;99.90
19552;DHT22;9921;47.186;9.778;2024-02-14T09:56:09;12.40;99.90
19552;DHT22;9921;47.186;9.778;2024-02-14T09:58:41;12.40;99.90
19552;DHT22;9921;47.186;9.778;2024-02-14T10:01:07;12.50;99.90
19552;DHT22;9921;47.186;9.778;2024-02-14T10:03:34;12.60;99.90
19552;DHT22;9921;47.186;9.778;2024-02-14T10:06:09;12.80;99.90
19552;DHT22;9921;47.186;9.778;2024-02-14T10:08:37;12.90;99.90
19552;DHT22;9921;47.186;9.778;2024-02-14T10:11:08;13.00;99.90
19552;DHT22;9921;47.186;9.778;2024-02-14T10:13:36;13.20;99.90
19552;DHT22;9921;47.186;9.778;2024-02-14T10:16:05;13.20;99.90
19552;DHT22;9921;47.186;9.778;2024-02-14T10:18:37;13.30;99.90
19552;DHT22;9921;47.186;9.778;2024-02-14T10:21:05;13.20;99.90
19552;DHT22;9921;47.186;9.778;2024-02-14T10:23:39;13.10;99.90
19552;DHT22;9921;47.186;9.778;2024-02-14T10:26:06;13.20;99.90
19552;DHT22;9921;47.186;9.778;2024-02-14T10:28:33;13.40;99.90
19552;DHT22;9921;47.186;9.778;2024-02-14T10:31:00;13.40;99.90
19552;DHT22;9921;47.186;9.778;2024-02-14T10:33:27;13.50;99.90
19552;DHT22;9921;47.186;9.778;2024-02-14T10:35:57;13.50;99.90
19552;DHT22;9921;47.186;9.778;2024-02-14T10:38:24;13.60;99.90
19552;DHT22;9921;47.186;9.778;2024-02-14T10:40:54;13.70;99.90
19552;DHT22;9921;47.186;9.778;2024-02-14T10:43:22;13.80;99.90
19552;DHT22;9921;47.186;9.778;2024-02-14T10:45:49;13.70;99.90
19552;DHT22;9921;47.186;9.778;2024-02-14T10:48:22;13.50;99.90
19552;DHT22;9921;47.186;9.778;2024-02-14T10:50:53;13.40;99.90
19552;DHT22;9921;47.186;9.778;2024-02-14T10:53:23;13.30;99.90
19552;DHT22;9921;47.186;9.778;2024-02-14T10:55:55;13.30;99.90
19552;DHT22;9921;47.186;9.778;2024-02-14T10:58:28;13.30;99.90
19552;DHT22;9921;47.186;9.778;2024-02-14T11:00:56;13.20;99.90
19552;DHT22;9921;47.186;9.778;2024-02-14T11:03:25;13.20;99.90
19552;DHT22;9921;47.186;9.778;2024-02-14T11:05:53;13.10;99.90
19552;DHT22;9921;47.186;9.778;2024-02-14T11:08:28;13.00;99.90
19552;DHT22;9921;47.186;9.778;2024-02-14T11:10:59;12.90;99.90
19552;DHT22;9921;47.186;9.778;2024-02-14T11:13:30;12.80;99.90
19552;DHT22;9921;47.186;9.778;2024-02-14T11:16:02;12.70;99.90
19552;DHT22;9921;47.186;9.778;2024-02-14T11:18:30;12.80;99.90
19552;DHT22;9921;47.186;9.778;2024-02-14T11:21:03;12.80;99.90
19552;DHT22;9921;47.186;9.778;2024-02-14T11:23:32;12.80;99.90
19552;DHT22;9921;47.186;9.778;2024-02-14T11:26:04;12.90;99.90
19552;DHT22;9921;47.186;9.778;2024-02-14T11:28:37;13.10;99.90
19552;DHT22;9921;47.186;9.778;2024-02-14T11:31:10;13.40;99.90
19552;DHT22;9921;47.186;9.778;2024-02-14T11:33:37;13.50;99.90
19552;DHT22;9921;47.186;9.778;2024-02-14T11:36:08;13.70;99.90
19552;DHT22;9921;47.186;9.778;2024-02-14T11:38:39;14.00;99.90
19552;DHT22;9921;47.186;9.778;2024-02-14T11:41:10;14.50;99.90
19552;DHT22;9921;47.186;9.778;2024-02-14T11:43:37;15.50;99.90
19552;DHT22;9921;47.186;9.778;2024-02-14T11:46:05;16.10;99.90
19552;DHT22;9921;47.186;9.778;2024-02-14T11:48:32;16.50;99.90
19552;DHT22;9921;47.186;9.778;2024-02-14T11:50:59;16.60;99.90
19552;DHT22;9921;47.186;9.778;2024-02-14T11:53:26;17.50;99.90
19552;DHT22;9921;47.186;9.778;2024-02-14T11:55:57;19.20;99.90
19552;DHT22;9921;47.186;9.778;2024-02-14T11:58:25;21.10;99.90
19552;DHT22;9921;47.186;9.778;2024-02-14T12:00:52;23.00;99.90
19552;DHT22;9921;47.186;9.778;2024-02-14T12:03:23;24.70;95.70
19552;DHT22;9921;47.186;9.778;2024-02-14T12:05:52;26.20;87.70
19552;DHT22;9921;47.186;9.778;2024-02-14T12:08:19;27.30;75.90
19552;DHT22;9921;47.186;9.778;2024-02-14T12:10:47;27.10;74.20
19552;DHT22;9921;47.186;9.778;2024-02-14T12:13:16;26.50;70.30
19552;DHT22;9921;47.186;9.778;2024-02-14T12:15:46;25.50;69.50
19552;DHT22;9921;47.186;9.778;2024-02-14T12:18:13;24.70;72.50
19552;DHT22;9921;47.186;9.778;2024-02-14T12:20:41;24.40;73.80
19552;DHT22;9921;47.186;9.778;2024-02-14T12:23:14;24.10;70.20
19552;DHT22;9921;47.186;9.778;2024-02-14T12:25:43;23.60;68.60
19552;DHT22;9921;47.186;9.778;2024-02-14T12:28:13;23.10;71.40
19552;DHT22;9921;47.186;9.778;2024-02-14T12:30:45;22.60;73.00
19552;DHT22;9921;47.186;9.778;2024-02-14T12:33:12;22.50;74.40
19552;DHT22;9921;47.186;9.778;2024-02-14T12:35:42;22.60;71.80
19552;DHT22;9921;47.186;9.778;2024-02-14T12:38:14;23.80;72.20
19552;DHT22;9921;47.186;9.778;2024-02-14T12:40:41;24.80;68.70
19552;DHT22;9921;47.186;9.778;2024-02-14T12:43:13;24.90;69.70
19552;DHT22;9921;47.186;9.778;2024-02-14T12:45:42;25.30;67.90
19552;DHT22;9921;47.186;9.778;2024-02-14T12:48:12;25.60;66.00
19552;DHT22;9921;47.186;9.778;2024-02-14T12:50:39;25.90;63.70
19552;DHT22;9921;47.186;9.778;2024-02-14T12:53:13;25.20;62.70
19552;DHT22;9921;47.186;9.778;2024-02-14T12:55:40;24.20;65.70
19552;DHT22;9921;47.186;9.778;2024-02-14T12:58:06;23.30;65.80
19552;DHT22;9921;47.186;9.778;2024-02-14T13:00:36;22.50;66.60
19552;DHT22;9921;47.186;9.778;2024-02-14T13:03:04;21.60;68.50
19552;DHT22;9921;47.186;9.778;2024-02-14T13:05:32;21.10;70.70
19552;DHT22;9921;47.186;9.778;2024-02-14T13:08:00;20.60;67.60
19552;DHT22;9921;47.186;9.778;2024-02-14T13:10:27;20.30;69.20
19552;DHT22;9921;47.186;9.778;2024-02-14T13:12:56;20.20;72.60
19552;DHT22;9921;47.186;9.778;2024-02-14T13:15:23;20.10;72.10
19552;DHT22;9921;47.186;9.778;2024-02-14T13:17:50;20.10;75.10
19552;DHT22;9921;47.186;9.778;2024-02-14T13:20:19;20.00;70.00
19552;DHT22;9921;47.186;9.778;2024-02-14T13:22:47;19.90;72.80
19552;DHT22;9921;47.186;9.778;2024-02-14T13:25:14;19.90;75.30
19552;DHT22;9921;47.186;9.778;2024-02-14T13:27:43;19.60;70.20
19552;DHT22;9921;47.186;9.778;2024-02-14T13:30:10;19.40;76.10
19552;DHT22;9921;47.186;9.778;2024-02-14T13:32:37;19.20;75.50
19552;DHT22;9921;47.186;9.778;2024-02-14T13:35:05;19.10;76.10
19552;DHT22;9921;47.186;9.778;2024-02-14T13:37:35;18.80;75.90
19552;DHT22;9921;47.186;9.778;2024-02-14T13:40:09;18.60;74.80
19552;DHT22;9921;47.186;9.778;2024-02-14T13:42:36;18.50;77.20
19552;DHT22;9921;47.186;9.778;2024-02-14T13:45:04;18.40;76.10
19552;DHT22;9921;47.186;9.778;2024-02-14T13:47:38;18.10;73.00
19552;DHT22;9921;47.186;9.778;2024-02-14T13:50:09;17.90;78.10
19552;DHT22;9921;47.186;9.778;2024-02-14T13:52:36;17.80;78.70
19552;DHT22;9921;47.186;9.778;2024-02-14T13:55:06;17.60;77.90
19552;DHT22;9921;47.186;9.778;2024-02-14T13:57:36;17.60;78.30
19552;DHT22;9921;47.186;9.778;2024-02-14T14:00:05;17.70;77.10
19552;DHT22;9921;47.186;9.778;2024-02-14T14:02:34;17.70;76.20
19552;DHT22;9921;47.186;9.778;2024-02-14T14:05:06;17.70;77.10
19552;DHT22;9921;47.186;9.778;2024-02-14T14:07:34;17.80;83.20
19552;DHT22;9921;47.186;9.778;2024-02-14T14:10:02;17.90;79.50
19552;DHT22;9921;47.186;9.778;2024-02-14T14:12:33;18.30;81.00
19552;DHT22;9921;47.186;9.778;2024-02-14T14:15:01;18.70;79.10
19552;DHT22;9921;47.186;9.778;2024-02-14T14:17:28;19.20;78.30
19552;DHT22;9921;47.186;9.778;2024-02-14T14:19:55;19.60;72.70
19552;DHT22;9921;47.186;9.778;2024-02-14T14:22:22;19.80;72.90
19552;DHT22;9921;47.186;9.778;2024-02-14T14:24:48;19.90;68.80
19552;DHT22;9921;47.186;9.778;2024-02-14T14:27:15;19.70;68.80
19552;DHT22;9921;47.186;9.778;2024-02-14T14:29:44;19.60;71.20
19552;DHT22;9921;47.186;9.778;2024-02-14T14:32:11;19.50;71.40
19552;DHT22;9921;47.186;9.778;2024-02-14T14:34:42;19.40;72.00
19552;DHT22;9921;47.186;9.778;2024-02-14T14:37:08;19.20;72.90
19552;DHT22;9921;47.186;9.778;2024-02-14T14:39:35;19.00;72.40
19552;DHT22;9921;47.186;9.778;2024-02-14T14:42:02;18.70;66.00
19552;DHT22;9921;47.186;9.778;2024-02-14T14:44:29;18.50;66.80
19552;DHT22;9921;47.186;9.778;2024-02-14T14:46:58;18.20;73.20
19552;DHT22;9921;47.186;9.778;2024-02-14T14:49:25;17.90;72.70
19552;DHT22;9921;47.186;9.778;2024-02-14T14:51:52;17.60;75.30
19552;DHT22;9921;47.186;9.778;2024-02-14T14:54:19;17.30;73.60
19552;DHT22;9921;47.186;9.778;2024-02-14T15:07:27;17.10;75.30
19552;DHT22;9921;47.186;9.778;2024-02-14T15:09:54;16.30;79.30
19552;DHT22;9921;47.186;9.778;2024-02-14T15:12:20;16.50;79.90
19552;DHT22;9921;47.186;9.778;2024-02-14T15:14:51;16.60;76.30
19552;DHT22;9921;47.186;9.778;2024-02-14T15:17:18;16.60;75.50
19552;DHT22;9921;47.186;9.778;2024-02-14T15:19:45;16.50;73.20
19552;DHT22;9921;47.186;9.778;2024-02-14T15:22:15;16.30;73.70
19552;DHT22;9921;47.186;9.778;2024-02-14T15:24:44;16.20;79.10
19552;DHT22;9921;47.186;9.778;2024-02-14T15:27:11;16.10;78.30
19552;DHT22;9921;47.186;9.778;2024-02-14T15:29:46;15.90;79.60
19552;DHT22;9921;47.186;9.778;2024-02-14T15:32:30;15.70;78.40
19552;DHT22;9921;47.186;9.778;2024-02-14T15:35:14;15.50;77.90
19552;DHT22;9921;47.186;9.778;2024-02-14T15:37:43;15.30;80.50
19552;DHT22;9921;47.186;9.778;2024-02-14T15:40:15;15.00;81.00
19552;DHT22;9921;47.186;9.778;2024-02-14T15:42:42;14.90;83.00
19552;DHT22;9921;47.186;9.778;2024-02-14T15:45:09;14.60;82.70
19552;DHT22;9921;47.186;9.778;2024-02-14T15:47:44;14.50;88.30
19552;DHT22;9921;47.186;9.778;2024-02-14T15:50:12;14.40;89.10
19552;DHT22;9921;47.186;9.778;2024-02-14T15:52:39;14.20;90.10
19552;DHT22;9921;47.186;9.778;2024-02-14T15:55:07;14.10;87.80
19552;DHT22;9921;47.186;9.778;2024-02-14T15:57:35;14.00;86.80
19552;DHT22;9921;47.186;9.778;2024-02-14T16:00:06;13.80;91.00
19552;DHT22;9921;47.186;9.778;2024-02-14T16:02:35;13.70;91.70
19552;DHT22;9921;47.186;9.778;2024-02-14T16:05:03;13.40;91.20
19552;DHT22;9921;47.186;9.778;2024-02-14T16:07:30;13.30;91.70
19552;DHT22;9921;47.186;9.778;2024-02-14T16:09:57;13.10;92.20
19552;DHT22;9921;47.186;9.778;2024-02-14T16:12:25;13.00;92.00
19552;DHT22;9921;47.186;9.778;2024-02-14T16:14:53;12.90;92.90